Time;durP1;ratioP1;P1;durP2;ratioP2;P2;SDS_P1;SDS_P2;PMS_P1;PMS_P2;Temp;Humidity;BMP_temperature;BMP_pressure;BME280_temperature;BME280_humidity;BME280_pressure;Samples;Min_cycle;Max_cycle;Signal;HPM_P1;HPM_P2
2023/04/17 00:01:55;;;;;;;14.57;9.20;;;14.00;60.10;;;;;;5081928;28;20502;-87
2023/04/17 00:04:22;;;;;;;14.53;8.77;;;14.00;60.40;;;;;;5049210;28;20452;-87
2023/04/17 00:06:52;;;;;;;17.70;10.43;;;14.00;60.00;;;;;;5099975;28;20444;-87
2023/04/17 00:09:19;;;;;;;14.80;9.53;;;14.00;59.90;;;;;;5071425;28;20444;-86
2023/04/17 00:11:46;;;;;;;14.53;9.83;;;14.00;60.00;;;;;;5074222;28;20471;-86
2023/04/17 00:14:15;;;;;;;14.60;9.83;;;14.10;60.20;;;;;;5087265;28;20479;-87
2023/04/17 00:16:42;;;;;;;14.03;9.37;;;14.10;59.90;;;;;;5094828;27;20454;-87
2023/04/17 00:19:09;;;;;;;13.67;9.83;;;14.20;60.30;;;;;;5085021;28;20531;-88
2023/04/17 00:21:36;;;;;;;17.43;10.20;;;14.10;60.00;;;;;;5055806;27;20487;-89
2023/04/17 00:24:03;;;;;;;13.40;9.70;;;14.10;60.10;;;;;;5051590;28;20888;-86
2023/04/17 00:26:31;;;;;;;17.77;10.37;;;14.10;60.80;;;;;;5078978;28;20559;-87
2023/04/17 00:28:58;;;;;;;15.67;9.97;;;14.10;60.90;;;;;;5050446;28;20971;-87
2023/04/17 00:31:27;;;;;;;16.03;10.10;;;14.10;60.70;;;;;;5102147;27;20465;-87
2023/04/17 00:33:54;;;;;;;15.73;10.07;;;14.10;60.60;;;;;;5081001;28;20443;-88
2023/04/17 00:36:21;;;;;;;16.57;10.27;;;14.20;60.90;;;;;;5094687;28;20448;-87
2023/04/17 00:38:48;;;;;;;18.13;9.73;;;14.20;60.80;;;;;;5050146;28;20479;-87
2023/04/17 00:41:15;;;;;;;19.97;11.40;;;14.20;60.80;;;;;;5046195;28;20436;-88
2023/04/17 00:43:42;;;;;;;16.93;10.37;;;14.30;61.00;;;;;;5063481;28;21427;-88
2023/04/17 00:46:09;;;;;;;17.53;10.23;;;14.30;61.20;;;;;;5047233;28;20470;-88
2023/04/17 00:48:39;;;;;;;14.47;10.20;;;14.20;61.30;;;;;;5079687;27;20491;-86
2023/04/17 00:51:07;;;;;;;16.23;11.40;;;14.20;61.20;;;;;;5079896;28;20475;-86
2023/04/17 00:53:34;;;;;;;15.30;9.87;;;14.20;61.00;;;;;;5053305;28;20488;-88
2023/04/17 00:56:05;;;;;;;13.10;9.67;;;14.20;61.10;;;;;;5070075;28;20493;-87
2023/04/17 00:58:33;;;;;;;12.33;9.57;;;14.20;61.20;;;;;;5082071;28;20461;-87
2023/04/17 01:01:00;;;;;;;18.43;11.17;;;14.30;61.40;;;;;;5052058;28;20500;-88
2023/04/17 01:03:28;;;;;;;15.87;10.70;;;14.30;61.40;;;;;;5077562;28;20995;-87
2023/04/17 01:05:57;;;;;;;17.93;12.37;;;14.20;62.00;;;;;;5093696;28;21285;-89
2023/04/17 01:08:24;;;;;;;17.20;11.57;;;14.10;62.10;;;;;;5076540;28;20995;-88
2023/04/17 01:10:52;;;;;;;20.00;11.70;;;14.10;62.60;;;;;;5050640;27;20483;-87
2023/04/17 01:13:19;;;;;;;15.43;10.73;;;14.10;62.40;;;;;;5049375;28;20566;-86
2023/04/17 01:15:46;;;;;;;16.43;9.77;;;14.10;62.30;;;;;;5092311;27;20443;-87
2023/04/17 01:18:13;;;;;;;13.73;8.87;;;14.20;62.20;;;;;;5072620;28;20466;-88
2023/04/17 01:20:40;;;;;;;14.23;10.13;;;14.10;62.30;;;;;;5084368;28;20550;-87
2023/04/17 01:23:09;;;;;;;15.70;11.10;;;14.10;62.20;;;;;;5049241;28;20498;-87
2023/04/17 01:25:37;;;;;;;13.63;9.27;;;14.10;62.40;;;;;;5085072;27;21018;-87
2023/04/17 01:28:05;;;;;;;14.40;9.60;;;14.10;62.30;;;;;;5053884;28;21445;-90
2023/04/17 01:30:32;;;;;;;13.63;9.10;;;14.20;62.00;;;;;;5076506;28;20477;-86
2023/04/17 01:33:03;;;;;;;13.30;9.37;;;14.10;62.00;;;;;;5075309;28;20464;-88
2023/04/17 01:35:30;;;;;;;15.73;10.57;;;14.20;62.00;;;;;;5061760;28;20539;-87
2023/04/17 01:37:57;;;;;;;15.43;10.50;;;14.20;61.70;;;;;;5047974;28;20455;-86
2023/04/17 01:40:24;;;;;;;16.17;10.40;;;14.10;61.80;;;;;;5078725;28;20447;-88
2023/04/17 01:42:53;;;;;;;16.27;10.07;;;14.10;61.90;;;;;;5051531;28;20459;-87
2023/04/17 01:45:21;;;;;;;16.00;9.97;;;14.00;62.20;;;;;;5113104;27;20681;-87
2023/04/17 01:47:48;;;;;;;16.43;9.80;;;14.10;62.20;;;;;;5049491;27;20464;-87
2023/04/17 01:50:15;;;;;;;17.57;10.13;;;14.10;61.80;;;;;;5051371;28;20452;-87
2023/04/17 01:52:42;;;;;;;15.03;9.90;;;14.10;61.50;;;;;;5075341;28;21276;-87
2023/04/17 01:55:09;;;;;;;14.80;10.60;;;14.10;61.90;;;;;;5078253;28;20443;-87
2023/04/17 01:57:36;;;;;;;16.10;10.70;;;14.10;61.90;;;;;;5078910;28;20479;-87
2023/04/17 02:00:07;;;;;;;18.57;11.60;;;14.10;62.00;;;;;;5083852;28;20450;-87
2023/04/17 02:02:39;;;;;;;19.63;10.97;;;14.10;62.40;;;;;;5077392;28;20471;-88
2023/04/17 02:05:07;;;;;;;17.03;10.90;;;14.10;62.20;;;;;;5062641;28;20520;-87
2023/04/17 02:07:35;;;;;;;16.93;11.63;;;14.10;62.10;;;;;;5052184;28;20543;-87
2023/04/17 02:10:02;;;;;;;14.90;10.30;;;14.10;61.90;;;;;;5086146;28;20452;-86
2023/04/17 02:12:29;;;;;;;16.50;10.23;;;14.10;61.90;;;;;;5083750;28;20567;-88
2023/04/17 02:14:59;;;;;;;20.40;12.10;;;14.10;62.00;;;;;;5053060;28;20466;-88
2023/04/17 02:17:28;;;;;;;15.13;10.73;;;14.10;61.70;;;;;;5055095;28;20797;-87
2023/04/17 02:19:55;;;;;;;18.47;11.23;;;14.10;61.20;;;;;;5057079;28;21146;-87
2023/04/17 02:22:23;;;;;;;15.30;10.00;;;13.90;62.10;;;;;;5050537;28;20930;-87
2023/04/17 02:24:51;;;;;;;13.30;9.43;;;13.90;62.30;;;;;;5078321;28;20448;-87
2023/04/17 02:27:20;;;;;;;13.37;9.30;;;13.70;62.70;;;;;;5055107;28;20557;-87
2023/04/17 02:29:47;;;;;;;23.00;11.83;;;13.80;62.80;;;;;;5108980;27;20549;-86
2023/04/17 02:32:15;;;;;;;16.60;9.50;;;13.80;62.80;;;;;;5077193;28;20475;-87
2023/04/17 02:34:44;;;;;;;17.87;10.83;;;13.90;62.60;;;;;;5095390;28;20448;-87
2023/04/17 02:37:12;;;;;;;14.67;10.67;;;13.80;62.60;;;;;;5059475;28;20455;-88
2023/04/17 02:39:39;;;;;;;16.17;9.20;;;13.90;62.30;;;;;;5078473;28;20456;-90
2023/04/17 02:42:06;;;;;;;18.87;9.77;;;13.80;63.00;;;;;;5049381;28;21214;-87
2023/04/17 02:44:33;;;;;;;12.17;8.70;;;13.80;62.70;;;;;;5091379;28;20863;-87
2023/04/17 02:47:00;;;;;;;14.70;9.83;;;13.90;62.40;;;;;;5048104;28;20459;-88
2023/04/17 02:49:31;;;;;;;12.60;8.90;;;14.00;62.10;;;;;;5075469;28;20440;-87
2023/04/17 02:52:00;;;;;;;16.50;9.70;;;13.90;61.80;;;;;;5050529;28;20470;-87
2023/04/17 02:54:27;;;;;;;14.50;9.67;;;13.90;61.80;;;;;;5066360;28;20995;-86
2023/04/17 02:56:57;;;;;;;13.87;9.60;;;13.90;61.60;;;;;;5052034;28;20449;-88
2023/04/17 02:59:24;;;;;;;13.83;10.70;;;13.80;61.80;;;;;;5083167;28;20447;-89
2023/04/17 03:01:51;;;;;;;16.13;10.40;;;13.70;62.50;;;;;;5075075;28;20506;-88
2023/04/17 03:04:20;;;;;;;15.77;10.27;;;13.80;62.10;;;;;;5091295;28;20455;-87
2023/04/17 03:06:48;;;;;;;18.60;10.10;;;13.80;61.70;;;;;;5076535;28;20464;-88
2023/04/17 03:09:17;;;;;;;12.83;8.90;;;13.80;61.40;;;;;;5050779;28;20559;-86
2023/04/17 03:11:44;;;;;;;15.77;9.27;;;13.80;61.00;;;;;;5065565;28;20478;-88
2023/04/17 03:14:11;;;;;;;13.90;8.53;;;13.80;60.80;;;;;;5079985;28;20504;-88
2023/04/17 03:16:38;;;;;;;14.07;9.27;;;13.70;60.60;;;;;;5094880;27;20443;-86
2023/04/17 03:19:05;;;;;;;15.07;10.23;;;13.70;60.90;;;;;;5081513;28;20470;-88
2023/04/17 03:21:32;;;;;;;13.80;8.83;;;13.70;61.50;;;;;;5098378;27;20462;-88
2023/04/17 03:24:00;;;;;;;14.27;9.80;;;13.70;61.00;;;;;;5099703;28;20827;-90
2023/04/17 03:26:29;;;;;;;17.53;10.50;;;13.70;60.70;;;;;;5082411;28;20490;-88
2023/04/17 03:28:57;;;;;;;18.10;11.67;;;13.60;60.50;;;;;;5079723;28;20450;-86
2023/04/17 03:31:26;;;;;;;18.03;12.03;;;13.40;61.10;;;;;;5050491;28;20450;-88
2023/04/17 03:33:53;;;;;;;37.73;19.90;;;13.40;61.40;;;;;;5070386;28;20455;-87
2023/04/17 03:36:20;;;;;;;48.53;25.70;;;13.40;61.50;;;;;;5077945;28;20538;-89
2023/04/17 03:38:47;;;;;;;74.73;35.13;;;13.40;61.40;;;;;;5081855;28;20451;-87
2023/04/17 03:41:16;;;;;;;59.00;29.90;;;13.50;61.70;;;;;;5052455;28;20967;-87
2023/04/17 03:43:46;;;;;;;36.23;21.60;;;13.60;61.70;;;;;;5098234;28;20467;-88
2023/04/17 03:46:14;;;;;;;30.33;17.13;;;13.50;61.50;;;;;;5072672;28;20552;-86
2023/04/17 03:48:42;;;;;;;16.53;10.97;;;13.60;61.50;;;;;;5050349;27;20957;-87
2023/04/17 03:51:09;;;;;;;24.10;13.47;;;13.60;61.00;;;;;;5078857;28;20450;-89
2023/04/17 03:53:37;;;;;;;27.10;15.80;;;13.40;60.90;;;;;;5102753;28;20561;-87
2023/04/17 03:56:08;;;;;;;25.93;14.53;;;13.40;61.30;;;;;;5054316;28;21604;-87
2023/04/17 03:58:38;;;;;;;20.00;13.03;;;13.40;61.50;;;;;;5086433;28;20452;-86
2023/04/17 04:01:11;;;;;;;20.60;12.50;;;13.50;61.30;;;;;;5058621;28;22049;-86
2023/04/17 04:03:46;;;;;;;24.93;11.33;;;13.50;61.00;;;;;;5084710;28;20471;-89
2023/04/17 04:06:13;;;;;;;17.37;11.93;;;13.40;60.70;;;;;;5049302;28;20559;-88
2023/04/17 04:08:40;;;;;;;16.23;11.13;;;13.40;60.60;;;;;;5077023;28;20446;-89
2023/04/17 04:11:07;;;;;;;17.30;11.60;;;13.40;60.90;;;;;;5075637;28;20458;-87
2023/04/17 04:13:37;;;;;;;20.30;12.27;;;13.30;60.60;;;;;;5094785;28;20570;-87
2023/04/17 04:16:07;;;;;;;20.63;13.10;;;13.20;61.00;;;;;;5077720;28;20450;-87
2023/04/17 04:18:37;;;;;;;22.40;12.60;;;13.00;61.80;;;;;;5084462;28;20455;-88
2023/04/17 04:21:05;;;;;;;21.00;13.30;;;13.10;62.20;;;;;;5053409;28;20455;-87
2023/04/17 04:23:38;;;;;;;23.80;15.40;;;13.00;61.70;;;;;;5067172;27;20467;-87
2023/04/17 04:26:06;;;;;;;28.03;15.43;;;13.10;62.00;;;;;;5069882;28;20471;-87
2023/04/17 04:28:41;;;;;;;21.10;13.40;;;13.20;62.20;;;;;;5082223;28;20474;-87
2023/04/17 04:31:17;;;;;;;17.40;10.90;;;13.20;62.10;;;;;;5104886;27;20943;-89
2023/04/17 04:33:46;;;;;;;14.60;11.20;;;13.10;62.50;;;;;;5089295;27;20525;-89
2023/04/17 04:36:19;;;;;;;17.30;10.50;;;12.80;63.00;;;;;;5080765;28;20452;-88
2023/04/17 04:38:49;;;;;;;25.27;15.90;;;12.40;64.40;;;;;;5077040;28;20456;-88
2023/04/17 04:41:24;;;;;;;20.07;12.80;;;12.30;65.00;;;;;;5058093;28;20533;-91
2023/04/17 04:43:53;;;;;;;26.60;15.57;;;12.40;65.50;;;;;;5049156;27;20458;-88
2023/04/17 04:46:20;;;;;;;19.60;11.77;;;12.50;64.50;;;;;;5064434;28;20558;-86
2023/04/17 04:48:50;;;;;;;19.10;10.73;;;12.70;64.00;;;;;;5041083;28;20597;-90
2023/04/17 04:51:18;;;;;;;20.17;12.40;;;12.80;63.70;;;;;;5074626;28;20493;-89
2023/04/17 04:53:46;;;;;;;20.10;10.80;;;12.90;63.80;;;;;;5043680;27;20467;-89
2023/04/17 04:56:15;;;;;;;20.67;11.17;;;13.10;63.90;;;;;;5059024;28;20458;-88
2023/04/17 04:58:43;;;;;;;16.03;10.80;;;13.20;63.50;;;;;;5089472;28;20483;-89
2023/04/17 05:01:10;;;;;;;17.13;11.40;;;13.20;63.50;;;;;;5077985;28;20698;-88
2023/04/17 05:03:44;;;;;;;18.50;11.77;;;13.20;63.80;;;;;;5059587;28;20474;-87
2023/04/17 05:06:15;;;;;;;21.73;11.03;;;13.10;64.40;;;;;;5059653;28;20450;-88
2023/04/17 05:08:50;;;;;;;14.67;10.50;;;13.30;64.20;;;;;;5075002;28;20529;-87
2023/04/17 05:11:17;;;;;;;15.33;11.67;;;13.40;63.50;;;;;;5053980;28;20451;-89
2023/04/17 05:13:44;;;;;;;16.03;10.60;;;13.50;63.40;;;;;;5089954;28;20825;-89
2023/04/17 05:16:17;;;;;;;16.47;11.30;;;13.50;63.50;;;;;;5048015;28;20459;-89
2023/04/17 05:18:46;;;;;;;16.80;10.30;;;13.20;64.30;;;;;;5066097;28;20510;-89
2023/04/17 05:21:18;;;;;;;14.60;9.50;;;13.30;64.50;;;;;;5038769;28;20476;-90
2023/04/17 05:23:49;;;;;;;13.90;11.27;;;13.40;64.00;;;;;;5073184;28;20475;-88
2023/04/17 05:26:16;;;;;;;17.40;10.40;;;13.50;63.90;;;;;;5073471;28;20881;-90
2023/04/17 05:28:44;;;;;;;15.30;9.43;;;13.40;64.40;;;;;;5048621;27;20458;-88
2023/04/17 05:31:15;;;;;;;17.20;9.83;;;13.30;64.80;;;;;;5075220;28;20451;-89
2023/04/17 05:33:43;;;;;;;15.80;8.70;;;13.30;64.70;;;;;;5057401;27;20741;-89
2023/04/17 05:36:10;;;;;;;18.70;10.57;;;13.30;65.00;;;;;;5047002;28;20542;-89
2023/04/17 05:38:41;;;;;;;14.73;10.27;;;13.30;65.50;;;;;;5074158;28;20650;-90
2023/04/17 05:41:10;;;;;;;15.77;8.63;;;13.30;65.20;;;;;;5070030;28;20459;-89
2023/04/17 05:43:37;;;;;;;17.47;11.47;;;13.30;65.80;;;;;;5074495;28;20482;-89
2023/04/17 05:46:05;;;;;;;13.20;9.80;;;13.30;65.30;;;;;;5063666;28;20523;-89
2023/04/17 05:48:32;;;;;;;16.60;10.37;;;13.40;65.40;;;;;;5046588;28;20479;-89
2023/04/17 05:50:59;;;;;;;15.67;10.90;;;13.50;65.00;;;;;;5069793;28;20695;-89
2023/04/17 05:53:26;;;;;;;18.17;10.97;;;13.50;64.50;;;;;;5073952;28;20467;-89
2023/04/17 05:55:59;;;;;;;19.37;11.43;;;13.60;64.40;;;;;;5088791;28;20451;-88
2023/04/17 05:58:26;;;;;;;16.20;11.37;;;13.70;64.40;;;;;;5061293;28;20443;-88
2023/04/17 06:00:57;;;;;;;18.37;11.27;;;13.70;64.10;;;;;;5069585;27;20454;-89
2023/04/17 06:03:25;;;;;;;19.30;10.40;;;13.70;64.00;;;;;;5072134;28;20472;-88
2023/04/17 06:06:00;;;;;;;17.40;11.13;;;13.70;63.90;;;;;;5070632;28;20458;-88
2023/04/17 06:08:27;;;;;;;16.20;10.77;;;13.60;64.10;;;;;;5069473;28;20488;-89
2023/04/17 06:10:55;;;;;;;14.93;9.83;;;13.70;64.30;;;;;;5069776;28;20528;-87
2023/04/17 06:13:24;;;;;;;21.63;11.80;;;13.90;64.10;;;;;;5077326;28;20478;-89
2023/04/17 06:15:52;;;;;;;18.50;11.67;;;13.80;63.80;;;;;;5046626;28;20461;-88
2023/04/17 06:18:19;;;;;;;15.20;10.57;;;13.80;64.00;;;;;;5105931;27;20440;-89
2023/04/17 06:20:47;;;;;;;19.87;10.63;;;13.80;63.80;;;;;;5088707;28;21003;-90
2023/04/17 06:23:14;;;;;;;14.27;10.70;;;13.70;64.50;;;;;;5074768;28;20491;-91
2023/04/17 06:25:42;;;;;;;17.10;10.20;;;13.80;64.40;;;;;;5062538;28;20455;-89
2023/04/17 06:28:09;;;;;;;17.77;10.60;;;13.90;64.00;;;;;;5073948;28;20521;-87
2023/04/17 06:30:38;;;;;;;15.83;11.77;;;13.70;64.40;;;;;;5077896;28;21074;-88
2023/04/17 06:33:05;;;;;;;14.53;11.03;;;13.80;64.40;;;;;;5073899;28;20480;-87
2023/04/17 06:35:33;;;;;;;17.00;11.23;;;13.80;64.60;;;;;;5064608;28;20451;-90
2023/04/17 06:38:10;;;;;;;18.00;10.90;;;13.70;65.00;;;;;;5072647;28;20557;-88
2023/04/17 06:40:38;;;;;;;17.37;11.43;;;13.80;64.70;;;;;;5074669;28;20462;-89
2023/04/17 06:43:06;;;;;;;13.33;10.17;;;13.80;64.80;;;;;;5046173;28;20476;-88
2023/04/17 06:45:41;;;;;;;19.70;10.43;;;13.90;64.30;;;;;;5092437;28;20463;-88
2023/04/17 06:48:08;;;;;;;20.87;11.50;;;13.80;64.10;;;;;;5090729;28;21078;-87
2023/04/17 06:50:35;;;;;;;16.30;10.53;;;13.90;64.50;;;;;;5083442;28;20439;-89
2023/04/17 06:53:02;;;;;;;17.40;10.60;;;14.00;63.90;;;;;;5081865;27;20510;-88
2023/04/17 06:55:29;;;;;;;18.93;9.40;;;13.90;64.00;;;;;;5094518;28;20451;-88
2023/04/17 06:57:56;;;;;;;13.27;10.30;;;13.90;64.10;;;;;;5079360;28;21158;-89
2023/04/17 07:00:23;;;;;;;13.87;9.63;;;14.10;63.90;;;;;;5075248;28;20570;-89
2023/04/17 07:02:52;;;;;;;14.90;9.70;;;14.30;63.20;;;;;;5052591;27;20748;-88
2023/04/17 07:05:19;;;;;;;12.90;9.47;;;14.30;63.50;;;;;;5112575;27;20472;-89
2023/04/17 07:07:46;;;;;;;12.83;9.47;;;14.10;63.10;;;;;;5095544;27;20858;-88
2023/04/17 07:10:14;;;;;;;15.47;10.23;;;14.10;64.10;;;;;;5050816;28;20478;-88
2023/04/17 07:12:41;;;;;;;16.40;10.10;;;14.20;63.80;;;;;;5049195;27;20480;-89
2023/04/17 07:15:09;;;;;;;13.97;9.53;;;14.40;63.50;;;;;;5054615;28;20482;-87
2023/04/17 07:17:36;;;;;;;13.37;9.13;;;14.40;62.90;;;;;;5048705;28;20900;-87
2023/04/17 07:20:07;;;;;;;14.57;9.50;;;14.40;63.30;;;;;;5094411;28;20949;-86
2023/04/17 07:22:36;;;;;;;12.10;9.40;;;14.50;63.00;;;;;;5069842;28;20829;-86
2023/04/17 07:25:04;;;;;;;12.83;9.37;;;14.50;62.10;;;;;;5065508;28;20439;-87
2023/04/17 07:27:31;;;;;;;13.33;9.13;;;14.70;62.20;;;;;;5056285;28;20484;-88
2023/04/17 07:29:58;;;;;;;14.07;9.00;;;14.60;61.30;;;;;;5074510;28;20581;-89
2023/04/17 07:32:25;;;;;;;14.87;9.17;;;14.50;62.10;;;;;;5096727;27;20557;-88
2023/04/17 07:34:52;;;;;;;12.60;9.10;;;14.40;61.90;;;;;;5060938;28;21074;-88
2023/04/17 07:37:21;;;;;;;12.07;9.00;;;14.40;62.30;;;;;;5060728;28;20526;-88
2023/04/17 07:39:49;;;;;;;11.87;8.83;;;14.60;62.80;;;;;;5040304;27;20560;-89
2023/04/17 07:42:16;;;;;;;12.20;8.63;;;14.60;61.70;;;;;;5073679;28;20506;-89
2023/04/17 07:44:43;;;;;;;14.63;9.73;;;14.50;62.30;;;;;;5050318;28;20451;-89
2023/04/17 07:47:10;;;;;;;13.77;9.20;;;14.50;60.60;;;;;;5074158;28;20475;-87
2023/04/17 07:49:39;;;;;;;14.43;8.60;;;14.50;61.70;;;;;;5074799;28;20498;-88
2023/04/17 07:52:06;;;;;;;13.03;9.60;;;14.60;60.90;;;;;;5048988;28;20558;-89
2023/04/17 07:54:34;;;;;;;10.77;7.73;;;14.60;61.50;;;;;;5074359;28;20491;-87
2023/04/17 07:57:02;;;;;;;10.47;7.40;;;14.70;60.10;;;;;;5091842;27;20547;-88
2023/04/17 07:59:29;;;;;;;8.87;7.00;;;14.90;60.50;;;;;;5110462;27;20458;-89
2023/04/17 08:01:56;;;;;;;9.40;6.40;;;15.10;59.80;;;;;;5075665;28;20921;-87
2023/04/17 08:04:24;;;;;;;12.50;7.50;;;15.00;58.60;;;;;;5070735;28;20455;-87
2023/04/17 08:06:51;;;;;;;8.90;5.83;;;15.00;58.70;;;;;;5060492;28;20443;-86
2023/04/17 08:09:20;;;;;;;9.90;7.60;;;15.20;59.10;;;;;;5090606;28;20898;-85
2023/04/17 08:11:48;;;;;;;8.50;6.00;;;15.20;58.60;;;;;;5058274;28;20520;-86
2023/04/17 08:14:16;;;;;;;8.80;6.20;;;15.10;57.60;;;;;;5073872;28;20460;-88
2023/04/17 08:16:43;;;;;;;6.73;5.43;;;15.20;58.30;;;;;;5056424;28;20440;-86
2023/04/17 08:19:10;;;;;;;9.60;7.40;;;15.30;57.80;;;;;;5049973;28;20487;-88
2023/04/17 08:21:37;;;;;;;7.63;5.90;;;15.50;57.90;;;;;;5066475;28;20487;-88
2023/04/17 08:24:05;;;;;;;13.27;7.20;;;15.50;57.00;;;;;;5064419;28;20615;-87
2023/04/17 08:26:32;;;;;;;11.17;6.80;;;15.60;57.10;;;;;;5085097;28;20475;-88
2023/04/17 08:29:03;;;;;;;13.20;6.57;;;15.50;56.70;;;;;;5073611;27;20992;-88
2023/04/17 08:31:30;;;;;;;8.20;5.67;;;15.40;56.20;;;;;;5077013;28;20459;-87
2023/04/17 08:33:59;;;;;;;7.33;5.47;;;15.50;57.60;;;;;;5047641;27;20440;-87
2023/04/17 08:36:26;;;;;;;8.00;5.27;;;15.40;56.00;;;;;;5050421;28;20539;-87
2023/04/17 08:38:53;;;;;;;9.73;5.60;;;15.40;56.50;;;;;;5089773;27;20563;-87
2023/04/17 08:41:23;;;;;;;7.20;4.73;;;15.10;56.50;;;;;;5056185;28;20521;-88
2023/04/17 08:43:52;;;;;;;8.10;5.73;;;14.90;56.10;;;;;;5048544;27;20448;-88
2023/04/17 08:46:23;;;;;;;8.87;5.60;;;14.90;57.30;;;;;;5091426;27;20573;-88
2023/04/17 08:48:51;;;;;;;9.20;5.17;;;14.80;57.00;;;;;;5075232;28;20475;-88
2023/04/17 08:51:18;;;;;;;6.10;4.73;;;15.10;57.40;;;;;;5057130;28;20965;-88
2023/04/17 08:53:46;;;;;;;7.80;5.70;;;15.10;56.00;;;;;;5055503;27;20532;-87
2023/04/17 08:56:13;;;;;;;6.90;5.80;;;15.20;56.40;;;;;;5068208;28;20440;-87
2023/04/17 08:58:40;;;;;;;8.57;5.03;;;15.20;55.50;;;;;;5043393;28;20487;-88
2023/04/17 09:01:09;;;;;;;7.43;4.87;;;15.30;55.40;;;;;;5073308;28;20447;-88
2023/04/17 09:03:42;;;;;;;7.87;5.17;;;15.30;55.30;;;;;;5050923;28;20478;-87
2023/04/17 09:06:10;;;;;;;7.30;4.90;;;15.50;54.70;;;;;;5041474;28;20463;-86
2023/04/17 09:08:38;;;;;;;8.00;5.23;;;15.40;55.00;;;;;;5057097;28;20565;-87
2023/04/17 09:11:15;;;;;;;5.93;5.10;;;15.50;55.60;;;;;;5078179;27;20456;-88
2023/04/17 09:13:42;;;;;;;4.63;3.87;;;15.40;53.60;;;;;;5053378;28;20532;-87
2023/04/17 09:16:14;;;;;;;4.70;3.87;;;15.30;54.30;;;;;;5078971;28;20438;-87
2023/04/17 09:18:44;;;;;;;5.60;4.47;;;15.40;53.30;;;;;;5041849;28;20631;-87
2023/04/17 09:21:13;;;;;;;7.53;5.00;;;15.30;52.90;;;;;;5051387;28;20458;-87
2023/04/17 09:23:48;;;;;;;5.10;4.60;;;15.30;52.90;;;;;;5072801;28;20527;-88
2023/04/17 09:26:17;;;;;;;4.77;4.00;;;15.40;53.80;;;;;;5046860;28;20458;-87
2023/04/17 09:29:02;;;;;;;6.00;4.40;;;15.40;53.50;;;;;;5069653;28;20553;-87
2023/04/17 09:31:33;;;;;;;7.13;5.27;;;15.50;53.60;;;;;;5066635;28;20473;-87
2023/04/17 09:34:03;;;;;;;6.33;4.70;;;15.30;53.50;;;;;;5075347;28;20473;-88
2023/04/17 09:36:32;;;;;;;6.07;4.40;;;15.20;55.00;;;;;;5095505;28;20539;-90
2023/04/17 09:39:02;;;;;;;4.40;3.90;;;15.40;53.70;;;;;;5087493;27;20442;-87
2023/04/17 09:41:31;;;;;;;6.37;4.33;;;15.50;53.00;;;;;;5076480;28;20447;-86
2023/04/17 09:44:04;;;;;;;9.30;4.27;;;15.50;52.60;;;;;;5057705;28;20440;-89
2023/04/17 09:46:33;;;;;;;11.83;4.57;;;15.50;52.10;;;;;;5050077;28;20439;-87
2023/04/17 09:49:08;;;;;;;10.43;5.90;;;15.50;52.90;;;;;;5080695;27;20483;-85
2023/04/17 09:51:36;;;;;;;7.43;4.40;;;15.70;52.20;;;;;;5075222;28;20449;-89
2023/04/17 09:54:05;;;;;;;8.80;4.40;;;15.70;51.60;;;;;;5049365;28;20610;-87
2023/04/17 09:56:34;;;;;;;3.90;3.50;;;15.60;51.40;;;;;;5055088;28;20476;-86
2023/04/17 09:59:04;;;;;;;3.87;3.57;;;15.80;52.50;;;;;;5075002;28;20479;-88
2023/04/17 10:01:32;;;;;;;5.00;3.97;;;15.90;50.80;;;;;;5078535;28;20452;-87
2023/04/17 10:04:02;;;;;;;5.83;4.10;;;15.90;51.40;;;;;;5073840;28;20452;-86
2023/04/17 10:06:32;;;;;;;5.07;4.20;;;16.10;51.30;;;;;;5077475;28;20458;-88
2023/04/17 10:08:59;;;;;;;4.27;3.57;;;16.30;50.20;;;;;;5074316;28;20479;-86
2023/04/17 10:11:30;;;;;;;3.63;3.23;;;16.40;50.70;;;;;;5075192;28;20547;-86
2023/04/17 10:14:08;;;;;;;6.13;4.27;;;16.30;50.30;;;;;;5098614;28;20491;-86
2023/04/17 10:16:37;;;;;;;4.87;3.47;;;16.10;51.00;;;;;;5073109;28;21169;-87
2023/04/17 10:19:37;;;;;;;7.20;3.83;;;16.20;51.40;;;;;;5088112;28;20435;-88
2023/04/17 10:22:29;;;;;;;6.70;4.93;;;16.20;52.40;;;;;;5016027;28;20546;-87
2023/04/17 10:25:21;;;;;;;5.57;4.60;;;16.30;51.70;;;;;;5071885;28;20464;-87
2023/04/17 10:27:53;;;;;;;6.70;4.07;;;16.30;51.30;;;;;;5058775;28;20440;-86
2023/04/17 10:30:22;;;;;;;4.43;4.03;;;16.30;52.50;;;;;;5077488;28;20492;-88
2023/04/17 10:33:24;;;;;;;4.73;3.60;;;16.60;52.40;;;;;;5058153;28;20478;-87
2023/04/17 10:35:54;;;;;;;4.00;3.60;;;16.70;50.50;;;;;;5092490;28;20453;-86
2023/04/17 10:38:38;;;;;;;4.97;4.47;;;17.00;51.10;;;;;;5053737;28;20435;-86
2023/04/17 10:41:10;;;;;;;6.47;4.20;;;16.80;50.40;;;;;;5064945;28;20447;-88
2023/04/17 10:43:41;;;;;;;4.10;3.70;;;16.70;50.30;;;;;;5091752;28;20916;-89
2023/04/17 10:46:11;;;;;;;3.87;3.40;;;16.50;50.50;;;;;;5055047;28;20546;-87
2023/04/17 10:48:48;;;;;;;6.33;4.60;;;16.50;51.70;;;;;;5060080;28;20483;-86
2023/04/17 10:51:44;;;;;;;5.83;4.33;;;16.50;51.40;;;;;;5067960;28;20534;-87
2023/04/17 10:54:14;;;;;;;5.50;4.30;;;16.60;50.70;;;;;;5070548;28;20485;-86
2023/04/17 10:56:44;;;;;;;7.80;4.30;;;16.60;50.60;;;;;;5092298;28;20550;-87
2023/04/17 10:59:13;;;;;;;4.70;4.07;;;16.40;51.30;;;;;;5075132;28;20545;-86
2023/04/17 11:01:56;;;;;;;4.70;4.00;;;16.20;50.50;;;;;;5088726;28;20444;-87
2023/04/17 11:04:27;;;;;;;3.93;3.07;;;16.20;51.90;;;;;;5088256;28;20443;-87
2023/04/17 11:06:57;;;;;;;3.30;3.00;;;16.10;51.40;;;;;;5081837;28;20984;-87
2023/04/17 11:09:26;;;;;;;4.20;3.80;;;16.00;51.20;;;;;;5072064;28;20550;-88
2023/04/17 11:11:53;;;;;;;3.47;3.17;;;15.80;51.70;;;;;;5081508;28;20748;-87
2023/04/17 11:14:22;;;;;;;3.43;2.80;;;15.70;51.90;;;;;;5072467;28;21070;-89
2023/04/17 11:16:51;;;;;;;2.50;2.30;;;15.70;51.80;;;;;;5106371;27;20965;-88
2023/04/17 11:19:21;;;;;;;2.60;2.17;;;15.60;50.80;;;;;;5072404;28;20439;-86
2023/04/17 11:21:49;;;;;;;2.50;2.23;;;15.70;51.60;;;;;;5092084;28;20521;-86
2023/04/17 11:24:24;;;;;;;2.37;1.80;;;15.80;51.20;;;;;;5088008;28;20447;-88
2023/04/17 11:26:51;;;;;;;2.40;2.20;;;15.80;51.30;;;;;;5080630;28;20569;-88
2023/04/17 11:29:20;;;;;;;2.53;2.20;;;15.70;51.70;;;;;;5055732;28;20460;-87
2023/04/17 11:31:48;;;;;;;3.03;2.60;;;15.90;51.40;;;;;;5066121;28;20484;-86
2023/04/17 11:34:16;;;;;;;2.43;2.23;;;15.90;51.00;;;;;;5049056;27;20454;-87
2023/04/17 11:36:50;;;;;;;2.60;2.40;;;16.10;51.30;;;;;;5046353;28;20447;-88
2023/04/17 11:39:18;;;;;;;2.67;2.47;;;16.20;50.40;;;;;;5076383;28;20453;-88
2023/04/17 11:41:48;;;;;;;5.00;3.30;;;16.10;50.80;;;;;;5096272;27;20473;-87
2023/04/17 11:44:18;;;;;;;5.67;2.80;;;16.10;51.20;;;;;;5075266;27;20457;-87
2023/04/17 11:46:51;;;;;;;2.87;2.57;;;16.00;51.00;;;;;;5093908;27;20443;-88
2023/04/17 11:49:25;;;;;;;2.33;2.13;;;16.00;50.80;;;;;;5084097;27;20469;-88
2023/04/17 11:51:52;;;;;;;3.97;2.30;;;16.10;51.30;;;;;;5051318;28;20474;-89
2023/04/17 11:54:26;;;;;;;2.60;2.40;;;16.00;51.20;;;;;;5076669;28;20458;-86
2023/04/17 11:57:04;;;;;;;2.83;2.50;;;15.90;51.70;;;;;;5050474;28;20569;-88
2023/04/17 11:59:33;;;;;;;2.47;2.27;;;15.90;51.30;;;;;;5075528;28;20443;-86
2023/04/17 12:02:05;;;;;;;3.40;2.20;;;15.90;51.30;;;;;;5057361;28;20471;-86
2023/04/17 12:04:33;;;;;;;3.27;2.47;;;16.00;51.80;;;;;;5093845;28;20444;-86
2023/04/17 12:07:00;;;;;;;2.00;1.80;;;16.00;52.10;;;;;;5044862;28;20466;-85
2023/04/17 12:09:30;;;;;;;2.40;2.20;;;15.90;51.60;;;;;;5060390;28;20475;-85
2023/04/17 12:11:58;;;;;;;2.60;2.40;;;15.80;52.10;;;;;;5083564;27;20538;-86
2023/04/17 12:14:26;;;;;;;2.03;1.90;;;15.80;51.50;;;;;;5076992;28;20444;-87
2023/04/17 12:16:53;;;;;;;1.97;1.87;;;15.50;51.70;;;;;;5078921;28;20447;-88
2023/04/17 12:19:20;;;;;;;2.40;1.83;;;15.40;52.10;;;;;;5072856;28;21715;-88
2023/04/17 12:21:47;;;;;;;1.63;1.53;;;15.40;52.30;;;;;;5064269;28;20885;-85
2023/04/17 12:24:18;;;;;;;2.97;1.80;;;15.70;52.40;;;;;;5081105;27;20451;-87
2023/04/17 12:26:46;;;;;;;2.27;2.07;;;16.00;52.00;;;;;;5061929;28;20475;-86
2023/04/17 12:29:13;;;;;;;2.30;2.10;;;16.10;52.60;;;;;;5064759;28;20499;-86
2023/04/17 12:31:44;;;;;;;2.13;1.80;;;16.30;51.60;;;;;;5092113;28;21053;-87
2023/04/17 12:34:11;;;;;;;2.20;2.00;;;16.30;50.60;;;;;;5083029;28;20452;-87
2023/04/17 12:36:40;;;;;;;2.87;2.13;;;16.10;51.20;;;;;;5092641;28;20534;-88
2023/04/17 12:39:07;;;;;;;2.50;2.30;;;16.00;50.80;;;;;;5050153;27;20475;-89
2023/04/17 12:41:34;;;;;;;1.83;1.70;;;15.80;52.20;;;;;;5079539;28;20526;-89
2023/04/17 12:44:02;;;;;;;4.27;2.27;;;15.60;52.00;;;;;;5065076;28;20511;-86
2023/04/17 12:46:30;;;;;;;3.00;2.13;;;15.50;52.70;;;;;;5066599;28;20935;-87